Aérodrome :
LOGIN :

S'inscrire | Disclaimer

   EN    FR    IT 

 










Légende :    VFR   VFR Marginal   IFR   IFR Intensif   IFR Très Intensif
Visi : 
Plafond : 
>= 8 km
>= 3000ft
5 à 8 km
1000 à 3000 ft
1500m à 5 km
500 à 1000 ft
800 à 1500m
200 à 500 ft
< 800m
< 200 ft
Symboles :   Orages  Brouillard  Fortes neiges  Fortes précipitations  Vent > 20 kt
SIGMETs :   Divers  Orages  Givrage  Turbulence  Onde Orograph.  Cendres Volcan.







- Altitude de l'aérodrome : 297 ft
- Code IATA : ODB


LEBA - Córdoba

DERNIER METAR :
  • 162330Z AUTO VRB02KT CAVOK 18/10 Q1022

METARs EXPIRÉS :
  • 162300Z AUTO 00000KT 9999 NCD 18/10 Q1023
  • 162230Z AUTO 00000KT 9999 NCD 19/10 Q1023
  • 162200Z AUTO VRB01KT 9999 NCD 19/10 Q1022
  • 162130Z AUTO 22003KT 120V260 9999 NCD 21/10 Q1022
  • 162100Z AUTO 21006KT 9999 NCD 21/10 Q1022

TAF TAF LEBA
Valide du 16 à 18h jusqu'au 17 à 03h UTC


161700Z 1618/1703 20006KT CAVOK
Pas de NOTAMs connus pour ce terrain.
1 SIGMET publié pour la FIR Madrid (LECM) :
 
Orages noyés dans la masse
LECM SIGMET 2 VALID 162330/170230 LEVA
LECM MADRID FIR/UIR EMBD TS OBS AT 2317Z S OF LINE N4210 W009 - N4220 W008 TOP FL340 MOV NNE 15KT NC=



MET'MAP, la Météo Aéronautique d'un coup d'oeil ! - Copyright ORBIFLY Décembre 2007 - Disclaimer

ORBIFLY MET'MAP TEAM :

Programmation & Développement : Alexandra Zaïnal
Conception & Développement : Baudouin d'Aumeries
Co-Programmation & Développement : Marc-Olivier Méhu
Soutien technique & logistique : Manuel Goepfert

Contact : metmap@orbifly.com




SOURCES & CREDITS :

   NOAA